sensor_id;sensor_type;location;lat;lon;timestamp;P1;durP1;ratioP1;P2;durP2;ratioP2
13461;SDS011;6803;45.264;5.468;2023-09-30T00:01:32;11.80;;;5.17;;
13461;SDS011;6803;45.264;5.468;2023-09-30T00:04:12;14.20;;;5.57;;
13461;SDS011;6803;45.264;5.468;2023-09-30T00:06:43;13.10;;;5.40;;
13461;SDS011;6803;45.264;5.468;2023-09-30T00:09:23;14.20;;;5.70;;
13461;SDS011;6803;45.264;5.468;2023-09-30T00:11:54;13.23;;;5.30;;
13461;SDS011;6803;45.264;5.468;2023-09-30T00:14:35;15.37;;;5.80;;
13461;SDS011;6803;45.264;5.468;2023-09-30T00:17:05;12.57;;;5.57;;
13461;SDS011;6803;45.264;5.468;2023-09-30T00:19:46;13.67;;;5.37;;
13461;SDS011;6803;45.264;5.468;2023-09-30T00:22:16;14.17;;;5.57;;
13461;SDS011;6803;45.264;5.468;2023-09-30T00:24:57;9.87;;;4.80;;
13461;SDS011;6803;45.264;5.468;2023-09-30T00:27:28;11.70;;;5.50;;
13461;SDS011;6803;45.264;5.468;2023-09-30T00:30:09;11.87;;;5.50;;
13461;SDS011;6803;45.264;5.468;2023-09-30T00:32:40;14.03;;;5.73;;
13461;SDS011;6803;45.264;5.468;2023-09-30T00:35:21;12.47;;;5.50;;
13461;SDS011;6803;45.264;5.468;2023-09-30T00:37:51;12.10;;;5.57;;
13461;SDS011;6803;45.264;5.468;2023-09-30T00:40:22;16.03;;;6.23;;
13461;SDS011;6803;45.264;5.468;2023-09-30T00:42:52;13.05;;;5.83;;
13461;SDS011;6803;45.264;5.468;2023-09-30T00:45:23;13.67;;;5.87;;
13461;SDS011;6803;45.264;5.468;2023-09-30T00:47:54;18.27;;;6.17;;
13461;SDS011;6803;45.264;5.468;2023-09-30T00:50:24;12.23;;;5.23;;
13461;SDS011;6803;45.264;5.468;2023-09-30T00:52:56;16.43;;;6.00;;
13461;SDS011;6803;45.264;5.468;2023-09-30T00:55:26;14.33;;;5.30;;
13461;SDS011;6803;45.264;5.468;2023-09-30T00:57:57;16.10;;;5.90;;
13461;SDS011;6803;45.264;5.468;2023-09-30T01:00:37;13.00;;;5.20;;
13461;SDS011;6803;45.264;5.468;2023-09-30T01:03:10;12.60;;;5.20;;
13461;SDS011;6803;45.264;5.468;2023-09-30T01:05:42;17.30;;;6.23;;
13461;SDS011;6803;45.264;5.468;2023-09-30T01:08:14;16.57;;;6.10;;
13461;SDS011;6803;45.264;5.468;2023-09-30T01:10:44;18.27;;;5.37;;
13461;SDS011;6803;45.264;5.468;2023-09-30T01:13:15;10.73;;;5.03;;
13461;SDS011;6803;45.264;5.468;2023-09-30T01:15:47;11.57;;;5.33;;
13461;SDS011;6803;45.264;5.468;2023-09-30T01:18:17;13.00;;;5.60;;
13461;SDS011;6803;45.264;5.468;2023-09-30T01:20:48;12.33;;;4.80;;
13461;SDS011;6803;45.264;5.468;2023-09-30T01:23:20;12.87;;;5.47;;
13461;SDS011;6803;45.264;5.468;2023-09-30T01:25:51;13.43;;;6.03;;
13461;SDS011;6803;45.264;5.468;2023-09-30T01:28:22;22.20;;;7.07;;
13461;SDS011;6803;45.264;5.468;2023-09-30T01:30:54;13.83;;;5.77;;
13461;SDS011;6803;45.264;5.468;2023-09-30T01:33:24;15.83;;;5.67;;
13461;SDS011;6803;45.264;5.468;2023-09-30T01:35:56;16.77;;;6.20;;
13461;SDS011;6803;45.264;5.468;2023-09-30T01:38:27;14.37;;;5.70;;
13461;SDS011;6803;45.264;5.468;2023-09-30T01:40:57;15.73;;;5.67;;
13461;SDS011;6803;45.264;5.468;2023-09-30T01:43:28;16.50;;;6.20;;
13461;SDS011;6803;45.264;5.468;2023-09-30T01:45:58;17.17;;;6.10;;
13461;SDS011;6803;45.264;5.468;2023-09-30T01:48:30;14.07;;;5.23;;
13461;SDS011;6803;45.264;5.468;2023-09-30T01:51:00;14.67;;;5.73;;
13461;SDS011;6803;45.264;5.468;2023-09-30T01:53:31;16.20;;;5.60;;
13461;SDS011;6803;45.264;5.468;2023-09-30T01:56:01;13.80;;;5.97;;
13461;SDS011;6803;45.264;5.468;2023-09-30T01:58:32;12.00;;;5.80;;
13461;SDS011;6803;45.264;5.468;2023-09-30T02:01:03;14.00;;;5.90;;
13461;SDS011;6803;45.264;5.468;2023-09-30T02:03:34;15.30;;;5.97;;
13461;SDS011;6803;45.264;5.468;2023-09-30T02:06:05;13.87;;;6.30;;
13461;SDS011;6803;45.264;5.468;2023-09-30T02:08:36;13.07;;;5.27;;
13461;SDS011;6803;45.264;5.468;2023-09-30T02:11:07;14.13;;;5.97;;
13461;SDS011;6803;45.264;5.468;2023-09-30T02:13:37;18.27;;;4.77;;
13461;SDS011;6803;45.264;5.468;2023-09-30T02:16:11;16.53;;;6.40;;
13461;SDS011;6803;45.264;5.468;2023-09-30T02:18:43;15.58;;;6.55;;
13461;SDS011;6803;45.264;5.468;2023-09-30T02:21:14;19.13;;;5.53;;
13461;SDS011;6803;45.264;5.468;2023-09-30T02:23:44;14.53;;;6.03;;
13461;SDS011;6803;45.264;5.468;2023-09-30T02:26:25;13.77;;;5.87;;
13461;SDS011;6803;45.264;5.468;2023-09-30T02:28:57;14.87;;;5.80;;
13461;SDS011;6803;45.264;5.468;2023-09-30T02:31:37;14.27;;;5.43;;
13461;SDS011;6803;45.264;5.468;2023-09-30T02:34:10;16.63;;;5.93;;
13461;SDS011;6803;45.264;5.468;2023-09-30T02:36:40;13.00;;;5.10;;
13461;SDS011;6803;45.264;5.468;2023-09-30T02:39:21;16.40;;;6.27;;
13461;SDS011;6803;45.264;5.468;2023-09-30T02:41:51;16.27;;;5.63;;
13461;SDS011;6803;45.264;5.468;2023-09-30T02:44:22;13.58;;;6.08;;
13461;SDS011;6803;45.264;5.468;2023-09-30T02:46:52;13.30;;;6.13;;
13461;SDS011;6803;45.264;5.468;2023-09-30T02:49:33;13.27;;;5.53;;
13461;SDS011;6803;45.264;5.468;2023-09-30T02:52:04;19.50;;;5.80;;
13461;SDS011;6803;45.264;5.468;2023-09-30T02:54:45;12.70;;;5.57;;
13461;SDS011;6803;45.264;5.468;2023-09-30T02:57:17;13.83;;;5.20;;
13461;SDS011;6803;45.264;5.468;2023-09-30T02:59:47;13.53;;;5.53;;
13461;SDS011;6803;45.264;5.468;2023-09-30T03:02:19;17.83;;;6.27;;
13461;SDS011;6803;45.264;5.468;2023-09-30T03:05:00;15.60;;;5.83;;
13461;SDS011;6803;45.264;5.468;2023-09-30T03:07:30;13.03;;;5.47;;
13461;SDS011;6803;45.264;5.468;2023-09-30T03:10:01;17.07;;;5.27;;
13461;SDS011;6803;45.264;5.468;2023-09-30T03:12:33;15.57;;;5.90;;
13461;SDS011;6803;45.264;5.468;2023-09-30T03:15:05;15.60;;;5.47;;
13461;SDS011;6803;45.264;5.468;2023-09-30T03:17:39;13.97;;;4.80;;
13461;SDS011;6803;45.264;5.468;2023-09-30T03:20:10;14.70;;;5.33;;
13461;SDS011;6803;45.264;5.468;2023-09-30T03:22:42;11.37;;;5.43;;
13461;SDS011;6803;45.264;5.468;2023-09-30T03:25:23;15.70;;;5.73;;
13461;SDS011;6803;45.264;5.468;2023-09-30T03:27:54;16.97;;;5.90;;
13461;SDS011;6803;45.264;5.468;2023-09-30T03:30:25;14.90;;;6.00;;
13461;SDS011;6803;45.264;5.468;2023-09-30T03:32:57;16.87;;;6.07;;
13461;SDS011;6803;45.264;5.468;2023-09-30T03:35:30;13.83;;;5.53;;
13461;SDS011;6803;45.264;5.468;2023-09-30T03:38:01;17.27;;;5.73;;
13461;SDS011;6803;45.264;5.468;2023-09-30T03:40:33;15.17;;;5.50;;
13461;SDS011;6803;45.264;5.468;2023-09-30T03:43:05;14.13;;;5.07;;
13461;SDS011;6803;45.264;5.468;2023-09-30T03:45:37;11.67;;;4.87;;
13461;SDS011;6803;45.264;5.468;2023-09-30T03:48:09;13.63;;;5.30;;
13461;SDS011;6803;45.264;5.468;2023-09-30T03:50:39;13.10;;;5.20;;
13461;SDS011;6803;45.264;5.468;2023-09-30T03:53:10;12.90;;;5.43;;
13461;SDS011;6803;45.264;5.468;2023-09-30T03:55:42;12.60;;;4.53;;
13461;SDS011;6803;45.264;5.468;2023-09-30T03:58:13;12.27;;;4.97;;
13461;SDS011;6803;45.264;5.468;2023-09-30T04:00:45;13.33;;;5.33;;
13461;SDS011;6803;45.264;5.468;2023-09-30T04:03:17;14.63;;;4.73;;
13461;SDS011;6803;45.264;5.468;2023-09-30T04:05:48;12.47;;;4.53;;
13461;SDS011;6803;45.264;5.468;2023-09-30T04:08:18;11.90;;;4.67;;
13461;SDS011;6803;45.264;5.468;2023-09-30T04:10:50;12.37;;;4.70;;
13461;SDS011;6803;45.264;5.468;2023-09-30T04:13:21;14.10;;;5.17;;
13461;SDS011;6803;45.264;5.468;2023-09-30T04:15:52;11.90;;;4.97;;
13461;SDS011;6803;45.264;5.468;2023-09-30T04:18:23;11.40;;;4.90;;
13461;SDS011;6803;45.264;5.468;2023-09-30T04:20:55;11.43;;;4.83;;
13461;SDS011;6803;45.264;5.468;2023-09-30T04:23:25;12.70;;;4.90;;
13461;SDS011;6803;45.264;5.468;2023-09-30T04:25:55;13.93;;;5.07;;
13461;SDS011;6803;45.264;5.468;2023-09-30T04:28:26;13.60;;;4.92;;
13461;SDS011;6803;45.264;5.468;2023-09-30T04:30:56;12.00;;;4.67;;
13461;SDS011;6803;45.264;5.468;2023-09-30T04:33:27;14.63;;;5.20;;
13461;SDS011;6803;45.264;5.468;2023-09-30T04:35:58;11.83;;;4.93;;
13461;SDS011;6803;45.264;5.468;2023-09-30T04:38:29;14.37;;;4.90;;
13461;SDS011;6803;45.264;5.468;2023-09-30T04:41:00;11.73;;;4.73;;
13461;SDS011;6803;45.264;5.468;2023-09-30T04:43:30;12.37;;;4.80;;
13461;SDS011;6803;45.264;5.468;2023-09-30T04:46:01;13.03;;;4.67;;
13461;SDS011;6803;45.264;5.468;2023-09-30T04:48:33;9.53;;;4.13;;
13461;SDS011;6803;45.264;5.468;2023-09-30T04:51:06;10.53;;;4.10;;
13461;SDS011;6803;45.264;5.468;2023-09-30T04:53:38;13.33;;;4.50;;
13461;SDS011;6803;45.264;5.468;2023-09-30T04:56:09;9.37;;;4.40;;
13461;SDS011;6803;45.264;5.468;2023-09-30T04:58:39;11.87;;;3.87;;
13461;SDS011;6803;45.264;5.468;2023-09-30T05:01:12;11.77;;;3.63;;
13461;SDS011;6803;45.264;5.468;2023-09-30T05:03:42;9.80;;;3.97;;
13461;SDS011;6803;45.264;5.468;2023-09-30T05:06:14;11.13;;;4.07;;
13461;SDS011;6803;45.264;5.468;2023-09-30T05:08:45;11.67;;;4.13;;
13461;SDS011;6803;45.264;5.468;2023-09-30T05:11:16;12.73;;;4.73;;
13461;SDS011;6803;45.264;5.468;2023-09-30T05:13:46;12.03;;;3.97;;
13461;SDS011;6803;45.264;5.468;2023-09-30T05:16:16;8.50;;;4.30;;
13461;SDS011;6803;45.264;5.468;2023-09-30T05:18:47;10.97;;;4.57;;
13461;SDS011;6803;45.264;5.468;2023-09-30T05:21:18;12.60;;;4.73;;
13461;SDS011;6803;45.264;5.468;2023-09-30T05:23:49;12.83;;;4.40;;
13461;SDS011;6803;45.264;5.468;2023-09-30T05:26:20;13.13;;;4.17;;
13461;SDS011;6803;45.264;5.468;2023-09-30T05:28:51;11.27;;;4.43;;
13461;SDS011;6803;45.264;5.468;2023-09-30T05:31:21;9.97;;;4.30;;
13461;SDS011;6803;45.264;5.468;2023-09-30T05:33:53;9.43;;;3.57;;
13461;SDS011;6803;45.264;5.468;2023-09-30T05:36:24;12.43;;;5.40;;
13461;SDS011;6803;45.264;5.468;2023-09-30T05:38:56;11.07;;;4.57;;
13461;SDS011;6803;45.264;5.468;2023-09-30T05:41:28;10.60;;;4.23;;
13461;SDS011;6803;45.264;5.468;2023-09-30T05:43:59;12.70;;;4.63;;
13461;SDS011;6803;45.264;5.468;2023-09-30T05:46:30;10.63;;;4.37;;
13461;SDS011;6803;45.264;5.468;2023-09-30T05:49:01;11.23;;;5.03;;
13461;SDS011;6803;45.264;5.468;2023-09-30T05:51:33;12.07;;;5.00;;
13461;SDS011;6803;45.264;5.468;2023-09-30T05:54:04;10.33;;;4.43;;
13461;SDS011;6803;45.264;5.468;2023-09-30T05:56:36;13.80;;;4.23;;
13461;SDS011;6803;45.264;5.468;2023-09-30T05:59:09;10.67;;;4.67;;
13461;SDS011;6803;45.264;5.468;2023-09-30T06:01:41;14.40;;;5.00;;
13461;SDS011;6803;45.264;5.468;2023-09-30T06:04:13;14.25;;;5.47;;
13461;SDS011;6803;45.264;5.468;2023-09-30T06:06:44;14.40;;;5.20;;
13461;SDS011;6803;45.264;5.468;2023-09-30T06:09:16;13.27;;;4.93;;
13461;SDS011;6803;45.264;5.468;2023-09-30T06:11:56;14.50;;;5.00;;
13461;SDS011;6803;45.264;5.468;2023-09-30T06:14:27;13.27;;;5.37;;
13461;SDS011;6803;45.264;5.468;2023-09-30T06:16:59;13.70;;;4.43;;
13461;SDS011;6803;45.264;5.468;2023-09-30T06:19:39;11.47;;;4.53;;
13461;SDS011;6803;45.264;5.468;2023-09-30T06:22:10;10.00;;;4.47;;
13461;SDS011;6803;45.264;5.468;2023-09-30T06:24:50;9.80;;;4.70;;
13461;SDS011;6803;45.264;5.468;2023-09-30T06:27:21;12.83;;;4.97;;
13461;SDS011;6803;45.264;5.468;2023-09-30T06:30:01;14.87;;;5.47;;
13461;SDS011;6803;45.264;5.468;2023-09-30T06:35:12;10.57;;;4.57;;
13461;SDS011;6803;45.264;5.468;2023-09-30T06:37:44;10.07;;;4.70;;
13461;SDS011;6803;45.264;5.468;2023-09-30T06:40:15;12.67;;;4.63;;
13461;SDS011;6803;45.264;5.468;2023-09-30T06:42:47;15.50;;;5.50;;
13461;SDS011;6803;45.264;5.468;2023-09-30T06:45:20;12.00;;;4.70;;
13461;SDS011;6803;45.264;5.468;2023-09-30T06:47:52;12.63;;;4.83;;
13461;SDS011;6803;45.264;5.468;2023-09-30T06:50:23;11.97;;;4.53;;
13461;SDS011;6803;45.264;5.468;2023-09-30T06:52:53;12.50;;;4.83;;
13461;SDS011;6803;45.264;5.468;2023-09-30T06:55:24;11.40;;;4.37;;
13461;SDS011;6803;45.264;5.468;2023-09-30T06:57:56;10.30;;;4.20;;
13461;SDS011;6803;45.264;5.468;2023-09-30T07:00:26;16.33;;;4.77;;
13461;SDS011;6803;45.264;5.468;2023-09-30T07:02:57;15.30;;;5.30;;
13461;SDS011;6803;45.264;5.468;2023-09-30T07:05:30;10.50;;;4.57;;
13461;SDS011;6803;45.264;5.468;2023-09-30T07:08:01;8.77;;;4.60;;
13461;SDS011;6803;45.264;5.468;2023-09-30T07:10:33;9.03;;;4.00;;
13461;SDS011;6803;45.264;5.468;2023-09-30T07:13:04;11.57;;;4.57;;
13461;SDS011;6803;45.264;5.468;2023-09-30T07:15:35;9.80;;;4.97;;
13461;SDS011;6803;45.264;5.468;2023-09-30T07:18:06;10.07;;;4.37;;
13461;SDS011;6803;45.264;5.468;2023-09-30T07:20:37;9.80;;;4.50;;
13461;SDS011;6803;45.264;5.468;2023-09-30T07:23:08;11.77;;;4.97;;
13461;SDS011;6803;45.264;5.468;2023-09-30T07:25:41;13.10;;;5.07;;
13461;SDS011;6803;45.264;5.468;2023-09-30T07:28:13;14.43;;;4.70;;
13461;SDS011;6803;45.264;5.468;2023-09-30T07:30:44;12.07;;;4.30;;
13461;SDS011;6803;45.264;5.468;2023-09-30T07:33:14;10.03;;;4.37;;
13461;SDS011;6803;45.264;5.468;2023-09-30T07:35:45;13.90;;;4.70;;
13461;SDS011;6803;45.264;5.468;2023-09-30T07:38:18;12.17;;;5.13;;
13461;SDS011;6803;45.264;5.468;2023-09-30T07:40:48;10.00;;;4.40;;
13461;SDS011;6803;45.264;5.468;2023-09-30T07:43:18;10.30;;;4.03;;
13461;SDS011;6803;45.264;5.468;2023-09-30T07:45:49;13.57;;;4.93;;
13461;SDS011;6803;45.264;5.468;2023-09-30T07:48:20;13.73;;;5.00;;
13461;SDS011;6803;45.264;5.468;2023-09-30T07:50:52;11.43;;;4.83;;
13461;SDS011;6803;45.264;5.468;2023-09-30T07:53:23;12.77;;;4.90;;
13461;SDS011;6803;45.264;5.468;2023-09-30T07:55:53;10.27;;;4.30;;
13461;SDS011;6803;45.264;5.468;2023-09-30T07:58:24;9.83;;;4.33;;
13461;SDS011;6803;45.264;5.468;2023-09-30T08:00:55;11.67;;;4.50;;
13461;SDS011;6803;45.264;5.468;2023-09-30T08:03:25;11.27;;;4.23;;
13461;SDS011;6803;45.264;5.468;2023-09-30T08:05:56;10.97;;;4.07;;
13461;SDS011;6803;45.264;5.468;2023-09-30T08:08:26;12.30;;;4.70;;
13461;SDS011;6803;45.264;5.468;2023-09-30T08:10:58;10.53;;;4.30;;
13461;SDS011;6803;45.264;5.468;2023-09-30T08:16:17;7.73;;;3.70;;
13461;SDS011;6803;45.264;5.468;2023-09-30T08:18:49;11.83;;;4.63;;
13461;SDS011;6803;45.264;5.468;2023-09-30T08:21:19;8.20;;;3.50;;
13461;SDS011;6803;45.264;5.468;2023-09-30T08:23:50;10.03;;;4.33;;
13461;SDS011;6803;45.264;5.468;2023-09-30T08:26:21;12.53;;;4.47;;
13461;SDS011;6803;45.264;5.468;2023-09-30T08:28:52;11.20;;;4.60;;
13461;SDS011;6803;45.264;5.468;2023-09-30T08:31:23;11.65;;;5.05;;
13461;SDS011;6803;45.264;5.468;2023-09-30T08:33:54;11.00;;;4.60;;
13461;SDS011;6803;45.264;5.468;2023-09-30T08:36:25;12.73;;;4.83;;
13461;SDS011;6803;45.264;5.468;2023-09-30T08:38:55;12.77;;;5.07;;
13461;SDS011;6803;45.264;5.468;2023-09-30T08:41:30;10.33;;;4.43;;
13461;SDS011;6803;45.264;5.468;2023-09-30T08:44:01;9.37;;;4.10;;
13461;SDS011;6803;45.264;5.468;2023-09-30T08:46:32;8.13;;;4.00;;
13461;SDS011;6803;45.264;5.468;2023-09-30T08:49:04;10.43;;;4.67;;
13461;SDS011;6803;45.264;5.468;2023-09-30T08:51:35;10.00;;;4.23;;
13461;SDS011;6803;45.264;5.468;2023-09-30T08:54:07;8.53;;;3.60;;
13461;SDS011;6803;45.264;5.468;2023-09-30T08:56:38;8.10;;;4.07;;
13461;SDS011;6803;45.264;5.468;2023-09-30T08:59:11;8.23;;;3.67;;
13461;SDS011;6803;45.264;5.468;2023-09-30T09:01:44;6.63;;;2.83;;
13461;SDS011;6803;45.264;5.468;2023-09-30T09:04:16;5.87;;;3.00;;
13461;SDS011;6803;45.264;5.468;2023-09-30T09:06:47;7.33;;;2.80;;
13461;SDS011;6803;45.264;5.468;2023-09-30T09:09:19;6.00;;;2.97;;
13461;SDS011;6803;45.264;5.468;2023-09-30T09:11:50;4.87;;;2.37;;
13461;SDS011;6803;45.264;5.468;2023-09-30T09:14:25;6.33;;;3.00;;
13461;SDS011;6803;45.264;5.468;2023-09-30T09:17:10;7.07;;;3.20;;
13461;SDS011;6803;45.264;5.468;2023-09-30T09:19:42;6.00;;;2.87;;
13461;SDS011;6803;45.264;5.468;2023-09-30T09:22:14;7.33;;;3.13;;
13461;SDS011;6803;45.264;5.468;2023-09-30T09:24:44;8.00;;;3.92;;
13461;SDS011;6803;45.264;5.468;2023-09-30T09:27:15;9.53;;;3.17;;
13461;SDS011;6803;45.264;5.468;2023-09-30T09:29:47;7.17;;;3.00;;
13461;SDS011;6803;45.264;5.468;2023-09-30T09:32:19;6.90;;;3.40;;
13461;SDS011;6803;45.264;5.468;2023-09-30T09:35:00;5.73;;;3.00;;
13461;SDS011;6803;45.264;5.468;2023-09-30T09:37:31;6.00;;;2.87;;
13461;SDS011;6803;45.264;5.468;2023-09-30T09:40:03;5.70;;;2.73;;
13461;SDS011;6803;45.264;5.468;2023-09-30T09:42:35;8.30;;;3.17;;
13461;SDS011;6803;45.264;5.468;2023-09-30T09:45:07;8.50;;;3.03;;
13461;SDS011;6803;45.264;5.468;2023-09-30T09:47:39;7.90;;;3.67;;
13461;SDS011;6803;45.264;5.468;2023-09-30T09:50:11;9.03;;;3.40;;
13461;SDS011;6803;45.264;5.468;2023-09-30T09:52:42;9.87;;;3.30;;
13461;SDS011;6803;45.264;5.468;2023-09-30T09:55:16;8.33;;;3.25;;
13461;SDS011;6803;45.264;5.468;2023-09-30T09:57:47;5.30;;;2.70;;
13461;SDS011;6803;45.264;5.468;2023-09-30T10:00:19;5.75;;;2.77;;
13461;SDS011;6803;45.264;5.468;2023-09-30T10:02:51;6.90;;;2.80;;
13461;SDS011;6803;45.264;5.468;2023-09-30T10:05:22;5.67;;;2.70;;
13461;SDS011;6803;45.264;5.468;2023-09-30T10:07:54;9.48;;;2.87;;
13461;SDS011;6803;45.264;5.468;2023-09-30T10:10:27;4.30;;;2.50;;
13461;SDS011;6803;45.264;5.468;2023-09-30T10:12:59;6.17;;;2.50;;
13461;SDS011;6803;45.264;5.468;2023-09-30T10:15:40;3.73;;;2.17;;
13461;SDS011;6803;45.264;5.468;2023-09-30T10:18:11;7.10;;;2.50;;
13461;SDS011;6803;45.264;5.468;2023-09-30T10:20:43;5.00;;;2.37;;
13461;SDS011;6803;45.264;5.468;2023-09-30T10:23:21;4.42;;;2.62;;
13461;SDS011;6803;45.264;5.468;2023-09-30T10:25:54;5.97;;;2.62;;
13461;SDS011;6803;45.264;5.468;2023-09-30T10:28:35;5.58;;;2.85;;
13461;SDS011;6803;45.264;5.468;2023-09-30T10:31:09;5.08;;;2.70;;
13461;SDS011;6803;45.264;5.468;2023-09-30T10:36:52;14.98;;;4.90;;
13461;SDS011;6803;45.264;5.468;2023-09-30T10:42:46;7.22;;;3.22;;
13461;SDS011;6803;45.264;5.468;2023-09-30T10:51:20;7.92;;;2.50;;
13461;SDS011;6803;45.264;5.468;2023-09-30T10:53:51;6.03;;;2.80;;
13461;SDS011;6803;45.264;5.468;2023-09-30T10:56:26;7.40;;;2.90;;
13461;SDS011;6803;45.264;5.468;2023-09-30T10:59:10;4.92;;;2.65;;
13461;SDS011;6803;45.264;5.468;2023-09-30T11:01:42;6.40;;;3.17;;
13461;SDS011;6803;45.264;5.468;2023-09-30T11:04:13;8.20;;;3.02;;
13461;SDS011;6803;45.264;5.468;2023-09-30T11:06:46;6.12;;;2.85;;
13461;SDS011;6803;45.264;5.468;2023-09-30T11:09:20;6.20;;;3.02;;
13461;SDS011;6803;45.264;5.468;2023-09-30T11:11:51;5.87;;;2.87;;
13461;SDS011;6803;45.264;5.468;2023-09-30T11:14:24;6.25;;;2.75;;
13461;SDS011;6803;45.264;5.468;2023-09-30T11:16:57;6.95;;;2.72;;
13461;SDS011;6803;45.264;5.468;2023-09-30T11:19:35;5.62;;;2.75;;
13461;SDS011;6803;45.264;5.468;2023-09-30T11:22:06;5.75;;;2.67;;
13461;SDS011;6803;45.264;5.468;2023-09-30T11:24:37;5.80;;;3.10;;
13461;SDS011;6803;45.264;5.468;2023-09-30T11:27:08;6.28;;;2.80;;
13461;SDS011;6803;45.264;5.468;2023-09-30T11:29:48;7.92;;;3.08;;
13461;SDS011;6803;45.264;5.468;2023-09-30T11:32:26;5.50;;;3.00;;
13461;SDS011;6803;45.264;5.468;2023-09-30T11:34:58;8.33;;;3.20;;
13461;SDS011;6803;45.264;5.468;2023-09-30T11:37:31;6.55;;;3.22;;
13461;SDS011;6803;45.264;5.468;2023-09-30T11:40:15;6.42;;;3.27;;
13461;SDS011;6803;45.264;5.468;2023-09-30T11:43:07;5.45;;;3.02;;
13461;SDS011;6803;45.264;5.468;2023-09-30T11:45:40;6.10;;;3.22;;
13461;SDS011;6803;45.264;5.468;2023-09-30T11:48:18;6.70;;;3.42;;
13461;SDS011;6803;45.264;5.468;2023-09-30T11:50:50;6.97;;;3.12;;
13461;SDS011;6803;45.264;5.468;2023-09-30T11:53:25;9.40;;;3.70;;
13461;SDS011;6803;45.264;5.468;2023-09-30T11:55:57;7.33;;;3.20;;
13461;SDS011;6803;45.264;5.468;2023-09-30T11:58:30;7.65;;;3.33;;
13461;SDS011;6803;45.264;5.468;2023-09-30T12:01:01;7.75;;;3.20;;
13461;SDS011;6803;45.264;5.468;2023-09-30T12:03:34;5.47;;;3.05;;
13461;SDS011;6803;45.264;5.468;2023-09-30T12:06:06;7.83;;;3.50;;
13461;SDS011;6803;45.264;5.468;2023-09-30T12:08:47;8.25;;;3.72;;
13461;SDS011;6803;45.264;5.468;2023-09-30T12:11:20;7.58;;;3.22;;
13461;SDS011;6803;45.264;5.468;2023-09-30T12:13:53;5.60;;;2.92;;
13461;SDS011;6803;45.264;5.468;2023-09-30T12:16:24;6.65;;;2.95;;
13461;SDS011;6803;45.264;5.468;2023-09-30T12:18:55;7.92;;;3.47;;
13461;SDS011;6803;45.264;5.468;2023-09-30T12:21:27;4.67;;;3.10;;
13461;SDS011;6803;45.264;5.468;2023-09-30T12:23:59;8.43;;;3.77;;
13461;SDS011;6803;45.264;5.468;2023-09-30T12:26:38;8.58;;;3.62;;
13461;SDS011;6803;45.264;5.468;2023-09-30T12:29:09;6.92;;;3.30;;
13461;SDS011;6803;45.264;5.468;2023-09-30T12:31:40;7.12;;;3.37;;
13461;SDS011;6803;45.264;5.468;2023-09-30T12:34:12;7.78;;;3.22;;
13461;SDS011;6803;45.264;5.468;2023-09-30T12:36:44;6.53;;;3.45;;
13461;SDS011;6803;45.264;5.468;2023-09-30T12:39:16;7.75;;;3.72;;
13461;SDS011;6803;45.264;5.468;2023-09-30T12:41:48;8.25;;;3.52;;
13461;SDS011;6803;45.264;5.468;2023-09-30T12:44:24;5.53;;;3.37;;
13461;SDS011;6803;45.264;5.468;2023-09-30T12:46:55;8.50;;;3.55;;
13461;SDS011;6803;45.264;5.468;2023-09-30T12:49:27;7.53;;;3.50;;
13461;SDS011;6803;45.264;5.468;2023-09-30T12:51:58;8.25;;;4.28;;
13461;SDS011;6803;45.264;5.468;2023-09-30T12:54:30;7.12;;;3.67;;
13461;SDS011;6803;45.264;5.468;2023-09-30T12:57:01;7.70;;;3.40;;
13461;SDS011;6803;45.264;5.468;2023-09-30T12:59:37;9.33;;;3.98;;
13461;SDS011;6803;45.264;5.468;2023-09-30T13:02:09;8.28;;;3.65;;
13461;SDS011;6803;45.264;5.468;2023-09-30T13:04:40;8.25;;;4.12;;
13461;SDS011;6803;45.264;5.468;2023-09-30T13:07:12;6.97;;;3.65;;
13461;SDS011;6803;45.264;5.468;2023-09-30T13:09:43;8.65;;;4.15;;
13461;SDS011;6803;45.264;5.468;2023-09-30T13:12:15;9.45;;;3.70;;
13461;SDS011;6803;45.264;5.468;2023-09-30T13:14:46;6.30;;;3.42;;
13461;SDS011;6803;45.264;5.468;2023-09-30T13:17:17;7.33;;;3.77;;
13461;SDS011;6803;45.264;5.468;2023-09-30T13:19:58;9.00;;;4.20;;
13461;SDS011;6803;45.264;5.468;2023-09-30T13:22:33;7.42;;;4.05;;
13461;SDS011;6803;45.264;5.468;2023-09-30T13:25:07;9.85;;;3.80;;
13461;SDS011;6803;45.264;5.468;2023-09-30T13:27:40;8.70;;;4.00;;
13461;SDS011;6803;45.264;5.468;2023-09-30T13:30:12;8.53;;;4.20;;
13461;SDS011;6803;45.264;5.468;2023-09-30T13:32:43;7.33;;;3.92;;
13461;SDS011;6803;45.264;5.468;2023-09-30T13:35:14;7.25;;;3.92;;
13461;SDS011;6803;45.264;5.468;2023-09-30T13:37:45;9.20;;;4.12;;
13461;SDS011;6803;45.264;5.468;2023-09-30T13:40:25;8.80;;;3.90;;
13461;SDS011;6803;45.264;5.468;2023-09-30T13:42:56;7.35;;;4.05;;
13461;SDS011;6803;45.264;5.468;2023-09-30T13:45:28;13.68;;;4.53;;
13461;SDS011;6803;45.264;5.468;2023-09-30T13:47:59;7.55;;;4.20;;
13461;SDS011;6803;45.264;5.468;2023-09-30T13:50:30;9.58;;;4.20;;
13461;SDS011;6803;45.264;5.468;2023-09-30T13:53:00;7.70;;;4.40;;
13461;SDS011;6803;45.264;5.468;2023-09-30T13:55:31;9.73;;;4.10;;
13461;SDS011;6803;45.264;5.468;2023-09-30T13:58:01;8.98;;;4.10;;
13461;SDS011;6803;45.264;5.468;2023-09-30T14:00:33;9.98;;;4.67;;
13461;SDS011;6803;45.264;5.468;2023-09-30T14:03:04;14.28;;;6.10;;
13461;SDS011;6803;45.264;5.468;2023-09-30T14:05:36;11.75;;;4.92;;
13461;SDS011;6803;45.264;5.468;2023-09-30T14:08:06;11.43;;;4.75;;
13461;SDS011;6803;45.264;5.468;2023-09-30T14:10:38;9.40;;;4.47;;
13461;SDS011;6803;45.264;5.468;2023-09-30T14:13:08;8.60;;;4.30;;
13461;SDS011;6803;45.264;5.468;2023-09-30T14:15:39;8.93;;;4.15;;
13461;SDS011;6803;45.264;5.468;2023-09-30T14:18:11;10.03;;;4.40;;
13461;SDS011;6803;45.264;5.468;2023-09-30T14:20:43;12.00;;;5.35;;
13461;SDS011;6803;45.264;5.468;2023-09-30T14:23:14;7.92;;;4.60;;
13461;SDS011;6803;45.264;5.468;2023-09-30T14:25:44;12.70;;;4.33;;
13461;SDS011;6803;45.264;5.468;2023-09-30T14:28:15;9.40;;;4.78;;
13461;SDS011;6803;45.264;5.468;2023-09-30T14:30:45;12.60;;;5.03;;
13461;SDS011;6803;45.264;5.468;2023-09-30T14:33:18;9.58;;;4.55;;
13461;SDS011;6803;45.264;5.468;2023-09-30T14:35:48;8.67;;;4.83;;
13461;SDS011;6803;45.264;5.468;2023-09-30T14:38:18;10.03;;;4.85;;
13461;SDS011;6803;45.264;5.468;2023-09-30T14:40:51;10.53;;;5.17;;
13461;SDS011;6803;45.264;5.468;2023-09-30T14:43:21;9.75;;;5.78;;
13461;SDS011;6803;45.264;5.468;2023-09-30T14:45:52;9.23;;;5.42;;
13461;SDS011;6803;45.264;5.468;2023-09-30T14:48:22;11.08;;;5.35;;
13461;SDS011;6803;45.264;5.468;2023-09-30T14:50:53;12.57;;;5.90;;
13461;SDS011;6803;45.264;5.468;2023-09-30T14:53:24;12.55;;;5.83;;
13461;SDS011;6803;45.264;5.468;2023-09-30T14:55:55;12.70;;;5.83;;
13461;SDS011;6803;45.264;5.468;2023-09-30T14:58:25;19.57;;;6.73;;
13461;SDS011;6803;45.264;5.468;2023-09-30T15:00:56;12.40;;;5.93;;
13461;SDS011;6803;45.264;5.468;2023-09-30T15:03:27;11.73;;;5.57;;
13461;SDS011;6803;45.264;5.468;2023-09-30T15:05:59;13.40;;;5.90;;
13461;SDS011;6803;45.264;5.468;2023-09-30T15:08:29;12.10;;;6.00;;
13461;SDS011;6803;45.264;5.468;2023-09-30T15:11:00;12.20;;;5.80;;
13461;SDS011;6803;45.264;5.468;2023-09-30T15:13:31;11.27;;;5.93;;
13461;SDS011;6803;45.264;5.468;2023-09-30T15:16:01;10.35;;;5.37;;
13461;SDS011;6803;45.264;5.468;2023-09-30T15:18:33;11.97;;;6.00;;
13461;SDS011;6803;45.264;5.468;2023-09-30T15:21:04;9.20;;;5.57;;
13461;SDS011;6803;45.264;5.468;2023-09-30T15:23:36;11.27;;;6.03;;
13461;SDS011;6803;45.264;5.468;2023-09-30T15:26:07;13.80;;;6.20;;
13461;SDS011;6803;45.264;5.468;2023-09-30T15:28:38;12.87;;;6.10;;
13461;SDS011;6803;45.264;5.468;2023-09-30T15:31:09;15.03;;;6.27;;
13461;SDS011;6803;45.264;5.468;2023-09-30T15:33:40;10.67;;;5.90;;
13461;SDS011;6803;45.264;5.468;2023-09-30T15:36:12;14.50;;;6.47;;
13461;SDS011;6803;45.264;5.468;2023-09-30T15:38:45;12.30;;;6.37;;
13461;SDS011;6803;45.264;5.468;2023-09-30T15:41:25;11.77;;;6.07;;